sensor_id;sensor_type;location;lat;lon;timestamp;pressure;altitude;pressure_sealevel;temperature;humidity
77192;BME280;66172;48.526;8.078;2023-05-07T00:00:38;99357.41;;;14.20;74.80
77192;BME280;66172;48.526;8.078;2023-05-07T00:03:04;99349.59;;;14.41;74.46
77192;BME280;66172;48.526;8.078;2023-05-07T00:05:29;99357.09;;;14.25;74.85
77192;BME280;66172;48.526;8.078;2023-05-07T00:07:56;99355.59;;;14.28;74.53
77192;BME280;66172;48.526;8.078;2023-05-07T00:10:21;99353.81;;;14.35;74.06
77192;BME280;66172;48.526;8.078;2023-05-07T00:12:47;99355.81;;;14.38;73.73
77192;BME280;66172;48.526;8.078;2023-05-07T00:15:13;99360.34;;;14.54;72.95
77192;BME280;66172;48.526;8.078;2023-05-07T00:17:39;99355.22;;;14.29;73.84
77192;BME280;66172;48.526;8.078;2023-05-07T00:20:05;99352.84;;;14.28;73.89
77192;BME280;66172;48.526;8.078;2023-05-07T00:22:31;99343.69;;;14.39;73.23
77192;BME280;66172;48.526;8.078;2023-05-07T00:24:58;99344.88;;;14.38;73.29
77192;BME280;66172;48.526;8.078;2023-05-07T00:27:24;99339.19;;;14.50;72.33
77192;BME280;66172;48.526;8.078;2023-05-07T00:29:51;99345.34;;;14.44;72.70
77192;BME280;66172;48.526;8.078;2023-05-07T00:32:16;99355.34;;;14.14;73.73
77192;BME280;66172;48.526;8.078;2023-05-07T00:34:43;99352.78;;;14.01;74.63
77192;BME280;66172;48.526;8.078;2023-05-07T00:37:09;99349.06;;;13.90;75.27
77192;BME280;66172;48.526;8.078;2023-05-07T00:39:35;99349.31;;;13.82;75.42
77192;BME280;66172;48.526;8.078;2023-05-07T00:42:01;99344.41;;;14.14;74.32
77192;BME280;66172;48.526;8.078;2023-05-07T00:44:29;99345.69;;;14.20;73.98
77192;BME280;66172;48.526;8.078;2023-05-07T00:46:56;99342.81;;;14.13;73.82
77192;BME280;66172;48.526;8.078;2023-05-07T00:49:29;99347.03;;;14.07;74.34
77192;BME280;66172;48.526;8.078;2023-05-07T00:52:00;99343.34;;;14.22;73.74
77192;BME280;66172;48.526;8.078;2023-05-07T00:54:26;99347.88;;;14.11;74.06
77192;BME280;66172;48.526;8.078;2023-05-07T00:56:52;99330.72;;;13.91;74.65
77192;BME280;66172;48.526;8.078;2023-05-07T00:59:18;99335.97;;;13.99;74.36
77192;BME280;66172;48.526;8.078;2023-05-07T01:01:44;99324.88;;;14.15;73.81
77192;BME280;66172;48.526;8.078;2023-05-07T01:04:10;99337.81;;;14.18;73.63
77192;BME280;66172;48.526;8.078;2023-05-07T01:06:37;99332.63;;;14.10;73.83
77192;BME280;66172;48.526;8.078;2023-05-07T01:09:04;99328.47;;;14.19;73.59
77192;BME280;66172;48.526;8.078;2023-05-07T01:11:30;99327.09;;;14.06;73.59
77192;BME280;66172;48.526;8.078;2023-05-07T01:13:58;99328.25;;;14.28;72.64
77192;BME280;66172;48.526;8.078;2023-05-07T01:16:25;99325.16;;;14.07;73.88
77192;BME280;66172;48.526;8.078;2023-05-07T01:18:51;99325.69;;;13.93;74.34
77192;BME280;66172;48.526;8.078;2023-05-07T01:21:17;99327.06;;;13.83;75.03
77192;BME280;66172;48.526;8.078;2023-05-07T01:23:44;99337.44;;;13.97;74.60
77192;BME280;66172;48.526;8.078;2023-05-07T01:26:10;99339.16;;;14.05;74.15
77192;BME280;66172;48.526;8.078;2023-05-07T01:28:36;99337.22;;;14.06;74.14
77192;BME280;66172;48.526;8.078;2023-05-07T01:31:03;99331.16;;;13.93;74.61
77192;BME280;66172;48.526;8.078;2023-05-07T01:33:33;99341.63;;;13.68;75.45
77192;BME280;66172;48.526;8.078;2023-05-07T01:36:00;99338.16;;;13.52;76.31
77192;BME280;66172;48.526;8.078;2023-05-07T01:38:29;99335.13;;;13.76;75.22
77192;BME280;66172;48.526;8.078;2023-05-07T01:40:55;99331.97;;;13.55;76.13
77192;BME280;66172;48.526;8.078;2023-05-07T01:43:21;99333.63;;;13.60;75.66
77192;BME280;66172;48.526;8.078;2023-05-07T01:45:48;99333.84;;;13.70;75.47
77192;BME280;66172;48.526;8.078;2023-05-07T01:48:15;99326.25;;;13.83;74.92
77192;BME280;66172;48.526;8.078;2023-05-07T01:50:42;99330.16;;;13.82;74.73
77192;BME280;66172;48.526;8.078;2023-05-07T01:53:08;99324.19;;;13.76;74.75
77192;BME280;66172;48.526;8.078;2023-05-07T01:55:34;99331.84;;;13.29;76.95
77192;BME280;66172;48.526;8.078;2023-05-07T01:58:03;99331.47;;;13.11;78.00
77192;BME280;66172;48.526;8.078;2023-05-07T02:00:28;99321.19;;;13.05;78.46
77192;BME280;66172;48.526;8.078;2023-05-07T02:02:54;99324.88;;;12.96;79.21
77192;BME280;66172;48.526;8.078;2023-05-07T02:05:20;99327.38;;;12.86;79.80
77192;BME280;66172;48.526;8.078;2023-05-07T02:07:46;99332.34;;;12.65;80.67
77192;BME280;66172;48.526;8.078;2023-05-07T02:10:12;99337.56;;;12.54;81.33
77192;BME280;66172;48.526;8.078;2023-05-07T02:12:38;99331.81;;;12.75;80.28
77192;BME280;66172;48.526;8.078;2023-05-07T02:15:04;99332.72;;;12.47;81.41
77192;BME280;66172;48.526;8.078;2023-05-07T02:17:31;99339.59;;;12.41;81.86
77192;BME280;66172;48.526;8.078;2023-05-07T02:19:58;99330.97;;;12.39;82.20
77192;BME280;66172;48.526;8.078;2023-05-07T02:22:25;99330.97;;;12.39;82.18
77192;BME280;66172;48.526;8.078;2023-05-07T02:24:51;99326.69;;;12.23;82.97
77192;BME280;66172;48.526;8.078;2023-05-07T02:27:17;99336.69;;;12.19;83.11
77192;BME280;66172;48.526;8.078;2023-05-07T02:29:43;99336.19;;;12.13;83.13
77192;BME280;66172;48.526;8.078;2023-05-07T02:32:08;99337.13;;;12.05;83.31
77192;BME280;66172;48.526;8.078;2023-05-07T02:34:34;99336.53;;;11.96;83.75
77192;BME280;66172;48.526;8.078;2023-05-07T02:37:00;99332.53;;;11.78;84.65
77192;BME280;66172;48.526;8.078;2023-05-07T02:39:26;99335.25;;;11.78;84.88
77192;BME280;66172;48.526;8.078;2023-05-07T02:41:52;99333.31;;;11.78;84.52
77192;BME280;66172;48.526;8.078;2023-05-07T02:44:18;99328.84;;;11.86;84.74
77192;BME280;66172;48.526;8.078;2023-05-07T02:46:44;99335.53;;;12.04;83.61
77192;BME280;66172;48.526;8.078;2023-05-07T02:49:09;99338.09;;;12.28;82.75
77192;BME280;66172;48.526;8.078;2023-05-07T02:51:35;99331.41;;;12.57;81.29
77192;BME280;66172;48.526;8.078;2023-05-07T02:54:01;99327.97;;;12.60;80.83
77192;BME280;66172;48.526;8.078;2023-05-07T02:56:27;99324.69;;;12.70;80.33
77192;BME280;66172;48.526;8.078;2023-05-07T02:58:53;99326.66;;;12.89;79.39
77192;BME280;66172;48.526;8.078;2023-05-07T03:01:19;99330.28;;;12.93;79.49
77192;BME280;66172;48.526;8.078;2023-05-07T03:03:46;99320.72;;;12.83;79.40
77192;BME280;66172;48.526;8.078;2023-05-07T03:06:12;99323.31;;;12.29;81.73
77192;BME280;66172;48.526;8.078;2023-05-07T03:08:38;99318.75;;;12.02;83.15
77192;BME280;66172;48.526;8.078;2023-05-07T03:11:04;99320.84;;;11.93;84.03
77192;BME280;66172;48.526;8.078;2023-05-07T03:13:29;99314.06;;;11.87;84.60
77192;BME280;66172;48.526;8.078;2023-05-07T03:15:55;99320.22;;;11.84;84.36
77192;BME280;66172;48.526;8.078;2023-05-07T03:18:21;99314.34;;;11.82;84.47
77192;BME280;66172;48.526;8.078;2023-05-07T03:20:48;99320.38;;;11.75;85.02
77192;BME280;66172;48.526;8.078;2023-05-07T03:23:14;99323.81;;;11.72;85.11
77192;BME280;66172;48.526;8.078;2023-05-07T03:25:39;99317.81;;;11.67;85.34
77192;BME280;66172;48.526;8.078;2023-05-07T03:28:05;99316.91;;;11.63;85.19
77192;BME280;66172;48.526;8.078;2023-05-07T03:30:31;99324.25;;;11.74;85.15
77192;BME280;66172;48.526;8.078;2023-05-07T03:32:57;99322.25;;;11.87;84.93
77192;BME280;66172;48.526;8.078;2023-05-07T03:35:23;99314.16;;;11.90;84.52
77192;BME280;66172;48.526;8.078;2023-05-07T03:37:49;99314.00;;;12.15;83.44
77192;BME280;66172;48.526;8.078;2023-05-07T03:40:15;99323.25;;;12.10;83.36
77192;BME280;66172;48.526;8.078;2023-05-07T03:42:41;99324.81;;;12.11;82.97
77192;BME280;66172;48.526;8.078;2023-05-07T03:45:07;99318.31;;;12.00;83.56
77192;BME280;66172;48.526;8.078;2023-05-07T03:47:33;99332.09;;;11.91;84.25
77192;BME280;66172;48.526;8.078;2023-05-07T03:49:59;99325.97;;;11.94;84.33
77192;BME280;66172;48.526;8.078;2023-05-07T03:52:25;99339.59;;;12.26;82.67
77192;BME280;66172;48.526;8.078;2023-05-07T03:54:52;99344.34;;;12.44;81.81
77192;BME280;66172;48.526;8.078;2023-05-07T03:57:19;99341.50;;;12.57;80.92
77192;BME280;66172;48.526;8.078;2023-05-07T03:59:45;99334.84;;;12.54;80.99
77192;BME280;66172;48.526;8.078;2023-05-07T04:02:11;99340.63;;;12.52;81.08
77192;BME280;66172;48.526;8.078;2023-05-07T04:04:37;99340.47;;;12.30;81.84
77192;BME280;66172;48.526;8.078;2023-05-07T04:07:03;99341.34;;;12.49;81.06
77192;BME280;66172;48.526;8.078;2023-05-07T04:09:29;99328.97;;;12.36;81.78
77192;BME280;66172;48.526;8.078;2023-05-07T04:11:54;99339.09;;;12.20;82.62
77192;BME280;66172;48.526;8.078;2023-05-07T04:14:20;99333.00;;;12.27;82.46
77192;BME280;66172;48.526;8.078;2023-05-07T04:16:46;99343.09;;;12.42;81.81
77192;BME280;66172;48.526;8.078;2023-05-07T04:19:12;99347.59;;;12.03;83.58
77192;BME280;66172;48.526;8.078;2023-05-07T04:21:38;99349.97;;;11.89;84.09
77192;BME280;66172;48.526;8.078;2023-05-07T04:24:04;99348.31;;;11.72;85.21
77192;BME280;66172;48.526;8.078;2023-05-07T04:26:30;99345.47;;;11.69;85.39
77192;BME280;66172;48.526;8.078;2023-05-07T04:28:57;99344.47;;;11.61;85.42
77192;BME280;66172;48.526;8.078;2023-05-07T04:31:24;99333.66;;;11.77;85.12
77192;BME280;66172;48.526;8.078;2023-05-07T04:33:50;99328.97;;;12.21;83.26
77192;BME280;66172;48.526;8.078;2023-05-07T04:36:17;99344.69;;;12.43;82.27
77192;BME280;66172;48.526;8.078;2023-05-07T04:38:43;99352.97;;;12.62;81.21
77192;BME280;66172;48.526;8.078;2023-05-07T04:41:09;99353.00;;;12.81;80.25
77192;BME280;66172;48.526;8.078;2023-05-07T04:43:35;99361.28;;;12.85;80.37
77192;BME280;66172;48.526;8.078;2023-05-07T04:46:01;99366.94;;;12.76;80.78
77192;BME280;66172;48.526;8.078;2023-05-07T04:48:27;99363.34;;;12.57;81.50
77192;BME280;66172;48.526;8.078;2023-05-07T04:50:54;99372.94;;;12.50;81.87
77192;BME280;66172;48.526;8.078;2023-05-07T04:53:20;99385.75;;;12.81;80.75
77192;BME280;66172;48.526;8.078;2023-05-07T04:55:46;99386.53;;;12.97;79.86
77192;BME280;66172;48.526;8.078;2023-05-07T04:58:13;99380.84;;;13.22;79.24
77192;BME280;66172;48.526;8.078;2023-05-07T05:00:39;99372.38;;;13.27;78.66
77192;BME280;66172;48.526;8.078;2023-05-07T05:03:08;99366.28;;;13.52;77.79
77192;BME280;66172;48.526;8.078;2023-05-07T05:05:34;99370.56;;;13.73;77.01
77192;BME280;66172;48.526;8.078;2023-05-07T05:08:00;99385.84;;;13.74;76.89
77192;BME280;66172;48.526;8.078;2023-05-07T05:10:26;99393.38;;;13.99;76.19
77192;BME280;66172;48.526;8.078;2023-05-07T05:12:51;99386.47;;;13.86;76.25
77192;BME280;66172;48.526;8.078;2023-05-07T05:15:17;99397.84;;;14.30;75.21
77192;BME280;66172;48.526;8.078;2023-05-07T05:17:43;99390.56;;;15.13;72.27
77192;BME280;66172;48.526;8.078;2023-05-07T05:20:10;99385.16;;;15.76;69.24
77192;BME280;66172;48.526;8.078;2023-05-07T05:22:37;99383.53;;;16.05;67.99
77192;BME280;66172;48.526;8.078;2023-05-07T05:25:03;99384.22;;;16.35;67.11
77192;BME280;66172;48.526;8.078;2023-05-07T05:27:29;99393.47;;;16.61;66.29
77192;BME280;66172;48.526;8.078;2023-05-07T05:29:55;99402.63;;;16.75;65.86
77192;BME280;66172;48.526;8.078;2023-05-07T05:32:21;99408.47;;;16.67;65.84
77192;BME280;66172;48.526;8.078;2023-05-07T05:34:47;99397.94;;;16.35;66.58
77192;BME280;66172;48.526;8.078;2023-05-07T05:37:13;99405.47;;;16.42;66.73
77192;BME280;66172;48.526;8.078;2023-05-07T05:39:39;99409.28;;;17.29;64.54
77192;BME280;66172;48.526;8.078;2023-05-07T05:42:05;99399.84;;;18.16;61.44
77192;BME280;66172;48.526;8.078;2023-05-07T05:44:31;99403.84;;;18.82;59.40
77192;BME280;66172;48.526;8.078;2023-05-07T05:46:56;99401.50;;;18.91;58.67
77192;BME280;66172;48.526;8.078;2023-05-07T05:49:25;99391.56;;;20.27;54.51
77192;BME280;66172;48.526;8.078;2023-05-07T05:51:51;99398.44;;;21.11;52.28
77192;BME280;66172;48.526;8.078;2023-05-07T05:54:17;99401.81;;;20.33;53.07
77192;BME280;66172;48.526;8.078;2023-05-07T05:56:43;99406.31;;;20.68;52.76
77192;BME280;66172;48.526;8.078;2023-05-07T05:59:08;99419.13;;;22.05;48.81
77192;BME280;66172;48.526;8.078;2023-05-07T06:04:00;99424.06;;;22.74;47.06
77192;BME280;66172;48.526;8.078;2023-05-07T06:06:26;99423.38;;;22.93;46.44
77192;BME280;66172;48.526;8.078;2023-05-07T06:08:52;99429.97;;;23.22;46.06
77192;BME280;66172;48.526;8.078;2023-05-07T06:11:18;99424.50;;;23.62;45.95
77192;BME280;66172;48.526;8.078;2023-05-07T06:13:44;99428.56;;;23.97;44.92
77192;BME280;66172;48.526;8.078;2023-05-07T06:16:10;99439.25;;;23.59;45.84
77192;BME280;66172;48.526;8.078;2023-05-07T06:18:36;99442.06;;;23.12;47.16
77192;BME280;66172;48.526;8.078;2023-05-07T06:21:02;99439.06;;;22.50;48.39
77192;BME280;66172;48.526;8.078;2023-05-07T06:23:28;99444.16;;;21.64;49.91
77192;BME280;66172;48.526;8.078;2023-05-07T06:25:54;99448.28;;;21.01;52.06
77192;BME280;66172;48.526;8.078;2023-05-07T06:28:19;99436.53;;;20.31;54.64
77192;BME280;66172;48.526;8.078;2023-05-07T06:30:45;99443.16;;;19.57;56.33
77192;BME280;66172;48.526;8.078;2023-05-07T06:33:11;99441.66;;;19.21;58.41
77192;BME280;66172;48.526;8.078;2023-05-07T06:35:37;99434.16;;;18.93;59.38
77192;BME280;66172;48.526;8.078;2023-05-07T06:38:03;99436.16;;;18.68;60.28
77192;BME280;66172;48.526;8.078;2023-05-07T06:40:29;99433.34;;;18.50;61.24
77192;BME280;66172;48.526;8.078;2023-05-07T06:42:55;99428.63;;;18.47;61.77
77192;BME280;66172;48.526;8.078;2023-05-07T06:45:21;99425.91;;;18.54;61.10
77192;BME280;66172;48.526;8.078;2023-05-07T06:47:47;99430.63;;;18.89;60.82
77192;BME280;66172;48.526;8.078;2023-05-07T06:50:13;99428.59;;;19.50;59.36
77192;BME280;66172;48.526;8.078;2023-05-07T06:52:38;99440.09;;;20.31;57.21
77192;BME280;66172;48.526;8.078;2023-05-07T06:55:05;99442.47;;;20.88;56.15
77192;BME280;66172;48.526;8.078;2023-05-07T06:57:31;99448.19;;;21.15;55.06
77192;BME280;66172;48.526;8.078;2023-05-07T06:59:57;99455.88;;;21.37;53.50
77192;BME280;66172;48.526;8.078;2023-05-07T07:02:23;99457.13;;;22.04;53.08
77192;BME280;66172;48.526;8.078;2023-05-07T07:04:49;99462.63;;;21.74;53.95
77192;BME280;66172;48.526;8.078;2023-05-07T07:07:14;99462.44;;;21.92;53.38
77192;BME280;66172;48.526;8.078;2023-05-07T07:09:40;99464.88;;;21.82;53.43
77192;BME280;66172;48.526;8.078;2023-05-07T07:12:06;99465.75;;;21.38;54.54
77192;BME280;66172;48.526;8.078;2023-05-07T07:14:32;99476.59;;;21.19;55.43
77192;BME280;66172;48.526;8.078;2023-05-07T07:16:58;99467.56;;;21.56;54.11
77192;BME280;66172;48.526;8.078;2023-05-07T07:19:25;99466.91;;;21.41;54.37
77192;BME280;66172;48.526;8.078;2023-05-07T07:21:51;99461.00;;;21.39;54.88
77192;BME280;66172;48.526;8.078;2023-05-07T07:24:17;99468.88;;;21.40;54.96
77192;BME280;66172;48.526;8.078;2023-05-07T07:26:46;99474.81;;;21.42;53.95
77192;BME280;66172;48.526;8.078;2023-05-07T07:29:13;99467.59;;;21.04;55.45
77192;BME280;66172;48.526;8.078;2023-05-07T07:31:39;99466.00;;;20.55;56.75
77192;BME280;66172;48.526;8.078;2023-05-07T07:34:05;99467.78;;;20.79;55.54
77192;BME280;66172;48.526;8.078;2023-05-07T07:36:30;99466.31;;;21.19;55.08
77192;BME280;66172;48.526;8.078;2023-05-07T07:38:56;99452.69;;;23.17;50.89
77192;BME280;66172;48.526;8.078;2023-05-07T07:41:22;99461.84;;;25.53;44.36
77192;BME280;66172;48.526;8.078;2023-05-07T07:43:48;99456.63;;;27.60;40.27
77192;BME280;66172;48.526;8.078;2023-05-07T07:46:14;99456.44;;;28.82;37.55
77192;BME280;66172;48.526;8.078;2023-05-07T07:48:40;99461.34;;;29.08;35.85
77192;BME280;66172;48.526;8.078;2023-05-07T07:51:06;99455.19;;;29.50;35.51
77192;BME280;66172;48.526;8.078;2023-05-07T07:53:32;99455.09;;;30.22;33.81
77192;BME280;66172;48.526;8.078;2023-05-07T07:55:57;99463.97;;;30.39;33.73
77192;BME280;66172;48.526;8.078;2023-05-07T07:58:23;99444.97;;;31.09;32.99
77192;BME280;66172;48.526;8.078;2023-05-07T08:00:50;99457.28;;;30.79;32.17
77192;BME280;66172;48.526;8.078;2023-05-07T08:03:16;99444.50;;;30.36;33.14
77192;BME280;66172;48.526;8.078;2023-05-07T08:05:43;99448.66;;;29.44;34.25
77192;BME280;66172;48.526;8.078;2023-05-07T08:08:08;99452.59;;;28.26;36.25
77192;BME280;66172;48.526;8.078;2023-05-07T08:10:35;99447.50;;;28.34;35.81
77192;BME280;66172;48.526;8.078;2023-05-07T08:13:03;99454.66;;;29.15;35.55
77192;BME280;66172;48.526;8.078;2023-05-07T08:15:30;99443.81;;;29.90;33.04
77192;BME280;66172;48.526;8.078;2023-05-07T08:17:56;99456.53;;;30.69;32.25
77192;BME280;66172;48.526;8.078;2023-05-07T08:20:23;99453.03;;;30.83;32.43
77192;BME280;66172;48.526;8.078;2023-05-07T08:22:49;99463.91;;;30.90;32.75
77192;BME280;66172;48.526;8.078;2023-05-07T08:25:15;99456.84;;;30.20;33.46
77192;BME280;66172;48.526;8.078;2023-05-07T08:27:41;99460.84;;;29.10;34.74
77192;BME280;66172;48.526;8.078;2023-05-07T08:30:07;99457.06;;;28.86;35.90
77192;BME280;66172;48.526;8.078;2023-05-07T08:32:33;99467.63;;;28.51;36.73
77192;BME280;66172;48.526;8.078;2023-05-07T08:34:59;99460.06;;;28.60;36.96
77192;BME280;66172;48.526;8.078;2023-05-07T08:37:25;99463.50;;;29.04;36.54
77192;BME280;66172;48.526;8.078;2023-05-07T08:39:51;99462.34;;;29.78;35.52
77192;BME280;66172;48.526;8.078;2023-05-07T08:42:17;99470.72;;;30.75;34.79
77192;BME280;66172;48.526;8.078;2023-05-07T08:44:45;99465.66;;;31.83;32.83
77192;BME280;66172;48.526;8.078;2023-05-07T08:47:12;99462.16;;;31.73;31.90
77192;BME280;66172;48.526;8.078;2023-05-07T08:49:38;99465.75;;;31.02;32.75
77192;BME280;66172;48.526;8.078;2023-05-07T08:52:05;99454.41;;;31.83;31.38
77192;BME280;66172;48.526;8.078;2023-05-07T08:54:31;99458.09;;;32.03;31.41
77192;BME280;66172;48.526;8.078;2023-05-07T08:56:57;99455.66;;;32.55;31.19
77192;BME280;66172;48.526;8.078;2023-05-07T08:59:23;99456.31;;;31.62;31.98
77192;BME280;66172;48.526;8.078;2023-05-07T09:01:49;99447.59;;;31.75;32.11
77192;BME280;66172;48.526;8.078;2023-05-07T09:04:15;99444.88;;;31.65;32.81
77192;BME280;66172;48.526;8.078;2023-05-07T09:06:41;99433.84;;;31.91;32.07
77192;BME280;66172;48.526;8.078;2023-05-07T09:09:07;99445.78;;;32.45;31.88
77192;BME280;66172;48.526;8.078;2023-05-07T09:11:33;99446.75;;;31.45;33.43
77192;BME280;66172;48.526;8.078;2023-05-07T09:13:59;99447.44;;;31.07;33.60
77192;BME280;66172;48.526;8.078;2023-05-07T09:16:28;99444.13;;;30.61;34.54
77192;BME280;66172;48.526;8.078;2023-05-07T09:18:57;99443.81;;;30.41;33.57
77192;BME280;66172;48.526;8.078;2023-05-07T09:21:23;99444.72;;;30.05;35.74
77192;BME280;66172;48.526;8.078;2023-05-07T09:23:53;99448.91;;;29.18;36.93
77192;BME280;66172;48.526;8.078;2023-05-07T09:26:22;99443.44;;;29.15;37.91
77192;BME280;66172;48.526;8.078;2023-05-07T09:28:49;99455.34;;;29.64;36.57
77192;BME280;66172;48.526;8.078;2023-05-07T09:31:14;99456.75;;;29.96;35.82
77192;BME280;66172;48.526;8.078;2023-05-07T09:33:40;99452.63;;;29.24;37.13
77192;BME280;66172;48.526;8.078;2023-05-07T09:36:07;99455.31;;;29.83;35.62
77192;BME280;66172;48.526;8.078;2023-05-07T09:38:35;99447.84;;;29.52;36.35
77192;BME280;66172;48.526;8.078;2023-05-07T09:41:09;99437.88;;;29.42;36.62
77192;BME280;66172;48.526;8.078;2023-05-07T09:43:37;99449.44;;;30.41;35.45
77192;BME280;66172;48.526;8.078;2023-05-07T09:46:13;99453.38;;;31.09;34.05
77192;BME280;66172;48.526;8.078;2023-05-07T09:48:41;99451.88;;;31.46;32.88
77192;BME280;66172;48.526;8.078;2023-05-07T09:51:25;99443.78;;;30.92;34.14
77192;BME280;66172;48.526;8.078;2023-05-07T09:53:54;99443.00;;;31.24;34.24
77192;BME280;66172;48.526;8.078;2023-05-07T09:56:22;99449.59;;;30.88;33.95
77192;BME280;66172;48.526;8.078;2023-05-07T09:58:49;99446.78;;;31.36;34.00
77192;BME280;66172;48.526;8.078;2023-05-07T10:01:17;99449.31;;;30.35;34.60
77192;BME280;66172;48.526;8.078;2023-05-07T10:03:43;99445.03;;;30.07;35.87
77192;BME280;66172;48.526;8.078;2023-05-07T10:06:10;99438.38;;;30.37;34.02
77192;BME280;66172;48.526;8.078;2023-05-07T10:08:39;99440.94;;;30.17;35.32
77192;BME280;66172;48.526;8.078;2023-05-07T10:11:05;99447.09;;;30.48;35.35
77192;BME280;66172;48.526;8.078;2023-05-07T10:13:33;99438.09;;;30.26;35.17
77192;BME280;66172;48.526;8.078;2023-05-07T10:16:02;99432.88;;;30.10;36.00
77192;BME280;66172;48.526;8.078;2023-05-07T10:18:30;99437.34;;;30.26;34.47
77192;BME280;66172;48.526;8.078;2023-05-07T10:21:18;99445.97;;;30.04;35.42
77192;BME280;66172;48.526;8.078;2023-05-07T10:23:50;99447.13;;;30.30;35.37
77192;BME280;66172;48.526;8.078;2023-05-07T10:26:18;99437.66;;;31.26;33.83
77192;BME280;66172;48.526;8.078;2023-05-07T10:28:49;99442.94;;;31.09;33.38
77192;BME280;66172;48.526;8.078;2023-05-07T10:34:12;99431.13;;;31.82;32.76
77192;BME280;66172;48.526;8.078;2023-05-07T10:36:40;99434.63;;;32.36;31.42
77192;BME280;66172;48.526;8.078;2023-05-07T10:39:07;99430.91;;;32.94;30.50
77192;BME280;66172;48.526;8.078;2023-05-07T10:41:34;99436.56;;;31.47;33.16
77192;BME280;66172;48.526;8.078;2023-05-07T10:43:59;99429.66;;;32.45;31.81
77192;BME280;66172;48.526;8.078;2023-05-07T10:46:27;99435.72;;;32.09;31.78
77192;BME280;66172;48.526;8.078;2023-05-07T10:51:30;99442.06;;;31.18;33.87
77192;BME280;66172;48.526;8.078;2023-05-07T10:54:19;99430.06;;;31.80;31.60
77192;BME280;66172;48.526;8.078;2023-05-07T10:56:46;99430.91;;;30.34;34.61
77192;BME280;66172;48.526;8.078;2023-05-07T11:02:00;99441.75;;;30.08;33.89
77192;BME280;66172;48.526;8.078;2023-05-07T11:04:30;99423.69;;;31.32;32.40
77192;BME280;66172;48.526;8.078;2023-05-07T11:15:09;99445.38;;;29.54;33.99
77192;BME280;66172;48.526;8.078;2023-05-07T11:17:58;99450.66;;;29.70;33.78
77192;BME280;66172;48.526;8.078;2023-05-07T11:20:47;99450.97;;;29.45;34.62
77192;BME280;66172;48.526;8.078;2023-05-07T11:26:10;99448.47;;;28.71;36.65
77192;BME280;66172;48.526;8.078;2023-05-07T11:28:38;99455.69;;;28.99;36.67
77192;BME280;66172;48.526;8.078;2023-05-07T11:31:05;99459.66;;;29.20;35.86
77192;BME280;66172;48.526;8.078;2023-05-07T11:33:31;99464.31;;;29.23;36.31
77192;BME280;66172;48.526;8.078;2023-05-07T11:35:57;99465.06;;;29.14;35.81
77192;BME280;66172;48.526;8.078;2023-05-07T11:38:24;99473.00;;;28.36;37.20
77192;BME280;66172;48.526;8.078;2023-05-07T11:40:55;99460.00;;;28.82;36.29
77192;BME280;66172;48.526;8.078;2023-05-07T11:43:21;99470.28;;;28.23;37.47
77192;BME280;66172;48.526;8.078;2023-05-07T11:45:48;99474.59;;;28.15;39.57
77192;BME280;66172;48.526;8.078;2023-05-07T11:48:15;99475.97;;;28.11;37.47
77192;BME280;66172;48.526;8.078;2023-05-07T11:50:51;99469.75;;;28.68;36.30
77192;BME280;66172;48.526;8.078;2023-05-07T11:53:19;99469.19;;;27.77;38.60
77192;BME280;66172;48.526;8.078;2023-05-07T11:55:46;99471.28;;;28.08;37.38
77192;BME280;66172;48.526;8.078;2023-05-07T11:58:12;99473.94;;;28.11;36.04
77192;BME280;66172;48.526;8.078;2023-05-07T12:00:52;99479.16;;;27.66;38.82
77192;BME280;66172;48.526;8.078;2023-05-07T12:03:19;99476.41;;;28.09;36.95
77192;BME280;66172;48.526;8.078;2023-05-07T12:05:46;99483.69;;;28.28;35.09
77192;BME280;66172;48.526;8.078;2023-05-07T12:08:16;99475.59;;;27.87;37.67
77192;BME280;66172;48.526;8.078;2023-05-07T12:10:42;99473.31;;;27.73;37.28
77192;BME280;66172;48.526;8.078;2023-05-07T12:13:21;99464.47;;;27.53;36.68
77192;BME280;66172;48.526;8.078;2023-05-07T12:15:55;99468.50;;;27.52;37.51
77192;BME280;66172;48.526;8.078;2023-05-07T12:18:22;99465.16;;;27.44;38.13
77192;BME280;66172;48.526;8.078;2023-05-07T12:20:49;99467.50;;;27.46;38.00
77192;BME280;66172;48.526;8.078;2023-05-07T12:23:16;99470.31;;;27.46;35.77
77192;BME280;66172;48.526;8.078;2023-05-07T12:25:42;99479.78;;;27.01;36.62
77192;BME280;66172;48.526;8.078;2023-05-07T12:28:14;99474.88;;;26.93;37.50
77192;BME280;66172;48.526;8.078;2023-05-07T12:30:44;99474.88;;;26.13;39.13
77192;BME280;66172;48.526;8.078;2023-05-07T12:33:10;99484.66;;;26.05;40.54
77192;BME280;66172;48.526;8.078;2023-05-07T12:35:40;99483.41;;;26.22;39.22
77192;BME280;66172;48.526;8.078;2023-05-07T12:38:11;99474.81;;;26.29;40.73
77192;BME280;66172;48.526;8.078;2023-05-07T12:40:38;99475.72;;;26.26;40.06
77192;BME280;66172;48.526;8.078;2023-05-07T12:43:04;99482.47;;;26.13;40.21
77192;BME280;66172;48.526;8.078;2023-05-07T12:45:30;99486.44;;;26.28;40.94
77192;BME280;66172;48.526;8.078;2023-05-07T12:48:01;99489.00;;;26.48;40.10
77192;BME280;66172;48.526;8.078;2023-05-07T12:50:31;99493.69;;;25.68;43.00
77192;BME280;66172;48.526;8.078;2023-05-07T12:52:57;99488.19;;;25.48;42.83
77192;BME280;66172;48.526;8.078;2023-05-07T12:55:23;99494.50;;;25.36;43.55
77192;BME280;66172;48.526;8.078;2023-05-07T12:57:49;99491.09;;;25.12;43.69
77192;BME280;66172;48.526;8.078;2023-05-07T13:00:16;99478.31;;;24.99;44.39
77192;BME280;66172;48.526;8.078;2023-05-07T13:02:43;99478.88;;;24.74;44.38
77192;BME280;66172;48.526;8.078;2023-05-07T13:05:11;99480.63;;;24.52;44.63
77192;BME280;66172;48.526;8.078;2023-05-07T13:07:37;99481.25;;;24.75;45.10
77192;BME280;66172;48.526;8.078;2023-05-07T13:10:04;99489.28;;;24.90;46.76
77192;BME280;66172;48.526;8.078;2023-05-07T13:12:30;99494.59;;;25.00;47.72
77192;BME280;66172;48.526;8.078;2023-05-07T13:14:56;99493.38;;;24.85;49.18
77192;BME280;66172;48.526;8.078;2023-05-07T13:17:22;99493.75;;;24.67;49.38
77192;BME280;66172;48.526;8.078;2023-05-07T13:19:47;99489.50;;;24.79;50.14